This is the latest recevied weather packets stored in our database for station/object DB0GIS-11. If no packets are shown the sender has not sent any weather packets the latest 1 day(s).
| Time | Temp. | Humidity | Pressure | Rain* | Wind** | Luminosity | Snow |
|---|---|---|---|---|---|---|---|
| 1778087253 | 13.89° C | 12% | 1002.3 hPa | 0 mm | - | - | - |
| 1778084255 | 15° C | 13% | 1002.1 hPa | 0 mm | - | - | - |
| 1778083656 | 15° C | 14% | 1002.2 hPa | 0 mm | - | - | - |
| 1778083052 | 15° C | 23% | 1002.2 hPa | 0 mm | - | - | - |
| 1778079447 | 15.56° C | 34% | 1001.7 hPa | 0 mm | - | - | - |
| 1778072853 | 16.67° C | 44% | 1001.7 hPa | 0 mm | - | - | - |
| 1778068059 | 15.56° C | 33% | 1001.8 hPa | 0 mm | - | - | - |
| 1778067476 | 15.56° C | 35% | 1001.7 hPa | 0 mm | - | - | - |
| 1778065085 | 16.11° C | 30% | 1001.6 hPa | 0 mm | - | - | - |
| 1778063262 | 16.67° C | 31% | 1001.6 hPa | 0 mm | - | - | - |
| 1778062650 | 16.67° C | 20% | 1001.6 hPa | 0 mm | - | - | - |
| 1778060273 | 15.56° C | 10% | 1001.7 hPa | 0 mm | - | - | - |
| 1778057853 | 14.44° C | 10% | 1001.6 hPa | 0 mm | - | - | - |
| 1778054864 | 15° C | 10% | 1001.3 hPa | 0 mm | - | - | - |
| 1778053053 | 14.44° C | 10% | 1001.3 hPa | 0 mm | - | - | - |
| 1778051855 | 13.89° C | 10% | 1001.3 hPa | 0 mm | - | - | - |
| 1778051249 | 13.89° C | 10% | 1001.3 hPa | 0 mm | - | - | - |
| 1778050051 | 13.33° C | 10% | 1001.3 hPa | 0 mm | - | - | - |
| 1778044659 | 12.78° C | 10% | 1001 hPa | 0 mm | - | - | - |
| 1778042848 | 12.78° C | 10% | 1001.2 hPa | 0 mm | - | - | - |
| 1778042263 | 12.22° C | 10% | 1001.2 hPa | 0 mm | - | - | - |
| 1778040491 | 12.22° C | 10% | 1001.3 hPa | 0 mm | - | - | - |
| 1778038699 | 12.22° C | 10% | 1001.3 hPa | 0 mm | - | - | - |
| 1778036257 | 12.78° C | 10% | 1001.3 hPa | 0 mm | - | - | - |
| 1778034455 | 12.78° C | 10% | 1001.3 hPa | 0 mm | - | - | - |
* Rain latest hour (hover to see other rain measurements)
** Current wind speed in m/s (hover to see current wind gust speed)